Eastgate, Washington
Current Conditions -  °F | °C
As of 10:53 AM on Thursday 27 Nov 2014 (Local Time) from KRNT Reporting Station
Overcast Overcast  
Wind Chill: 59°   Ceiling: 2900
Heat Index: 59°   Visibility: 10mi
Dew Point: 50°   Wind: 15mph
Humidity: 72%   Direction: 160°SSE
Pressure: 29.83"   Gusts: 22mph
Location:  47.6127°N, 122.144°W
Report Text: KRNT 271853Z 16013G19KT 10SM OVC029 15/10 A2983 RMK AO2 RAB11E34 SLP107 P0000 T01500100
Loading
Personal Weather Stations






























Interactive Weather Map New forecast layout! Learn more

10-Day Weather Forecast

Advertisements
Track Severe Weather on mobile